Time;durP1;ratioP1;P1;durP2;ratioP2;P2;SDS_P1;SDS_P2;PMS_P1;PMS_P2;Temp;Humidity;BMP_temperature;BMP_pressure;BME280_temperature;BME280_humidity;BME280_pressure;Samples;Min_cycle;Max_cycle;Signal;HPM_P1;HPM_P2
2022/11/22 00:00:35;;;;;;;15.23;6.63;;;;;;;;;;4996049;28;20198;-79
2022/11/22 00:03:01;;;;;;;14.70;6.20;;;;;;;;;;4994967;28;20182;-86
2022/11/22 00:05:27;;;;;;;14.60;5.80;;;;;;;;;;4979834;28;20260;-86
2022/11/22 00:07:53;;;;;;;14.70;5.87;;;;;;;;;;4973491;28;20186;-86
2022/11/22 00:10:20;;;;;;;15.67;6.23;;;;;;;;;;4968821;28;20182;-86
2022/11/22 00:12:46;;;;;;;15.57;6.13;;;;;;;;;;4966102;28;20273;-86
2022/11/22 00:15:12;;;;;;;15.90;6.10;;;;;;;;;;4991849;28;20199;-86
2022/11/22 00:17:38;;;;;;;17.97;6.27;;;;;;;;;;4996076;28;20186;-85
2022/11/22 00:20:05;;;;;;;16.43;6.70;;;;;;;;;;4982073;28;20174;-86
2022/11/22 00:22:31;;;;;;;15.57;6.40;;;;;;;;;;4960059;28;20285;-86
2022/11/22 00:24:57;;;;;;;16.60;5.90;;;;;;;;;;4977106;28;20198;-86
2022/11/22 00:27:23;;;;;;;18.90;6.50;;;;;;;;;;4992077;28;20183;-86
2022/11/22 00:29:49;;;;;;;16.50;6.60;;;;;;;;;;4965848;28;20182;-86
2022/11/22 00:32:15;;;;;;;21.00;7.27;;;;;;;;;;4965238;28;20231;-86
2022/11/22 00:34:41;;;;;;;19.03;7.80;;;;;;;;;;4957210;28;20262;-77
2022/11/22 00:37:07;;;;;;;17.60;8.33;;;;;;;;;;4972414;28;20191;-77
2022/11/22 00:39:34;;;;;;;15.30;8.40;;;;;;;;;;4989673;28;20187;-77
2022/11/22 00:42:00;;;;;;;21.57;10.60;;;;;;;;;;4967128;28;20203;-77
2022/11/22 00:44:26;;;;;;;17.87;9.83;;;;;;;;;;4950361;28;20187;-77
2022/11/22 00:46:52;;;;;;;19.73;10.37;;;;;;;;;;4969071;28;20223;-77
2022/11/22 00:49:18;;;;;;;20.07;10.00;;;;;;;;;;4940902;28;20214;-77
2022/11/22 00:51:44;;;;;;;18.87;9.93;;;;;;;;;;4975602;28;20351;-77
2022/11/22 00:54:10;;;;;;;19.77;10.20;;;;;;;;;;4961692;28;20176;-76
2022/11/22 00:56:36;;;;;;;19.33;9.57;;;;;;;;;;4953476;28;20222;-76
2022/11/22 00:59:02;;;;;;;18.37;9.30;;;;;;;;;;4956846;28;20192;-78
2022/11/22 01:01:28;;;;;;;16.80;8.30;;;;;;;;;;4964889;28;20196;-79
2022/11/22 01:03:54;;;;;;;21.30;9.20;;;;;;;;;;4947880;28;20202;-78
2022/11/22 01:06:20;;;;;;;18.63;8.97;;;;;;;;;;4986839;28;20331;-78
2022/11/22 01:08:47;;;;;;;15.17;7.80;;;;;;;;;;4979181;28;20271;-76
2022/11/22 01:11:15;;;;;;;14.30;8.40;;;;;;;;;;4987842;28;20214;-77
2022/11/22 01:13:41;;;;;;;21.80;9.17;;;;;;;;;;4987203;28;20243;-77
2022/11/22 01:16:08;;;;;;;17.90;8.17;;;;;;;;;;4987479;28;20191;-77
2022/11/22 01:18:34;;;;;;;16.63;7.80;;;;;;;;;;4972122;28;20190;-76
2022/11/22 01:21:00;;;;;;;15.93;8.33;;;;;;;;;;4960138;28;20194;-76
2022/11/22 01:23:26;;;;;;;19.33;7.93;;;;;;;;;;4971838;28;20225;-76
2022/11/22 01:25:52;;;;;;;16.20;7.63;;;;;;;;;;4955505;28;20227;-86
2022/11/22 01:28:18;;;;;;;18.27;8.53;;;;;;;;;;4964693;28;20179;-86
2022/11/22 01:30:44;;;;;;;19.37;8.47;;;;;;;;;;4961840;28;20239;-86
2022/11/22 01:33:11;;;;;;;18.97;9.00;;;;;;;;;;4979093;28;20255;-86
2022/11/22 01:35:37;;;;;;;18.53;8.53;;;;;;;;;;4954715;29;20219;-86
2022/11/22 01:38:03;;;;;;;15.37;8.33;;;;;;;;;;4955711;28;20204;-86
2022/11/22 01:40:29;;;;;;;17.17;9.13;;;;;;;;;;4949683;28;20191;-86
2022/11/22 01:42:57;;;;;;;19.60;9.20;;;;;;;;;;4956692;28;20197;-80
2022/11/22 01:45:43;;;;;;;18.63;8.87;;;;;;;;;;4944727;29;20283;-80
2022/11/22 01:48:12;;;;;;;18.47;9.30;;;;;;;;;;4939324;29;20180;-79
2022/11/22 01:50:40;;;;;;;18.17;9.77;;;;;;;;;;4972059;28;20207;-80
2022/11/22 01:53:08;;;;;;;18.63;8.80;;;;;;;;;;4939718;29;20187;-79
2022/11/22 01:55:35;;;;;;;15.67;8.93;;;;;;;;;;4970194;28;20195;-79
2022/11/22 01:58:01;;;;;;;17.30;9.20;;;;;;;;;;4947194;29;20184;-79
2022/11/22 02:00:27;;;;;;;18.20;10.00;;;;;;;;;;4927715;29;20188;-80
2022/11/22 02:02:55;;;;;;;21.40;10.10;;;;;;;;;;4940277;29;20225;-80
2022/11/22 02:05:23;;;;;;;21.93;10.50;;;;;;;;;;4934868;29;20207;-80
2022/11/22 02:08:28;;;;;;;20.13;10.97;;;;;;;;;;4940252;29;20215;-80
2022/11/22 02:10:56;;;;;;;17.40;10.67;;;;;;;;;;4911949;29;20193;-80
2022/11/22 02:13:23;;;;;;;16.87;9.60;;;;;;;;;;4912781;29;20188;-80
2022/11/22 02:15:50;;;;;;;19.93;9.90;;;;;;;;;;4917467;29;20252;-83
2022/11/22 02:18:16;;;;;;;22.60;10.47;;;;;;;;;;4937236;29;20196;-86
2022/11/22 02:20:43;;;;;;;15.57;9.93;;;;;;;;;;4967492;28;20224;-86
2022/11/22 02:23:22;;;;;;;21.27;10.20;;;;;;;;;;4960405;28;20195;-86
2022/11/22 02:25:52;;;;;;;20.57;10.30;;;;;;;;;;4947367;28;20218;-85
2022/11/22 02:28:18;;;;;;;13.90;9.23;;;;;;;;;;4940447;29;20238;-86
2022/11/22 02:30:44;;;;;;;24.20;9.27;;;;;;;;;;4955404;28;20670;-86
2022/11/22 02:33:10;;;;;;;18.77;9.63;;;;;;;;;;4989213;28;20277;-79
2022/11/22 02:35:36;;;;;;;18.53;9.03;;;;;;;;;;4960704;28;20195;-79
2022/11/22 02:38:04;;;;;;;17.10;8.93;;;;;;;;;;4962275;28;20269;-79
2022/11/22 02:40:36;;;;;;;19.07;9.00;;;;;;;;;;4977458;28;20229;-79
2022/11/22 02:43:04;;;;;;;18.37;7.90;;;;;;;;;;4963128;28;20183;-79
2022/11/22 02:45:30;;;;;;;17.27;8.50;;;;;;;;;;4990226;28;20217;-79
2022/11/22 02:48:07;;;;;;;19.37;7.97;;;;;;;;;;4962915;28;20187;-79
2022/11/22 02:50:33;;;;;;;14.43;8.13;;;;;;;;;;4975957;28;20201;-80
2022/11/22 02:52:59;;;;;;;17.13;8.43;;;;;;;;;;4961650;28;20266;-80
2022/11/22 02:55:25;;;;;;;21.07;8.27;;;;;;;;;;4975602;28;20227;-80
2022/11/22 02:57:51;;;;;;;20.37;8.03;;;;;;;;;;4959784;28;20187;-80
2022/11/22 03:00:17;;;;;;;22.10;8.20;;;;;;;;;;4970247;28;20190;-80
2022/11/22 03:02:43;;;;;;;19.70;8.57;;;;;;;;;;4974225;28;20214;-80
2022/11/22 03:05:09;;;;;;;17.77;7.93;;;;;;;;;;4947404;28;20249;-80
2022/11/22 03:07:35;;;;;;;18.10;7.97;;;;;;;;;;4990155;28;20175;-80
2022/11/22 03:10:01;;;;;;;16.13;7.90;;;;;;;;;;4989970;28;20274;-80
2022/11/22 03:12:27;;;;;;;16.23;6.73;;;;;;;;;;4990067;28;20195;-80
2022/11/22 03:14:53;;;;;;;17.23;7.23;;;;;;;;;;4975263;28;20210;-85
2022/11/22 03:17:19;;;;;;;17.47;6.77;;;;;;;;;;4990216;28;20211;-86
2022/11/22 03:19:45;;;;;;;18.60;6.87;;;;;;;;;;4957931;28;20199;-79
2022/11/22 03:22:11;;;;;;;17.37;6.83;;;;;;;;;;4969920;28;20238;-79
2022/11/22 03:24:37;;;;;;;20.00;6.70;;;;;;;;;;4974581;28;20187;-79
2022/11/22 03:27:03;;;;;;;19.63;6.03;;;;;;;;;;4997085;28;20215;-78
2022/11/22 03:29:29;;;;;;;19.03;5.83;;;;;;;;;;4957568;28;20222;-78
2022/11/22 03:31:55;;;;;;;12.87;5.27;;;;;;;;;;4957044;28;20323;-79
2022/11/22 03:34:21;;;;;;;17.90;5.50;;;;;;;;;;4971995;28;20278;-79
2022/11/22 03:36:47;;;;;;;15.80;5.20;;;;;;;;;;4943974;29;20211;-85
2022/11/22 03:39:13;;;;;;;16.73;5.23;;;;;;;;;;4957210;28;20278;-80
2022/11/22 03:41:39;;;;;;;18.60;5.73;;;;;;;;;;4947271;29;20228;-80
2022/11/22 03:44:05;;;;;;;14.57;5.00;;;;;;;;;;4962382;28;20195;-80
2022/11/22 03:46:31;;;;;;;14.83;4.63;;;;;;;;;;4955922;29;20227;-80
2022/11/22 03:48:57;;;;;;;22.33;4.87;;;;;;;;;;4955580;29;20195;-80
2022/11/22 03:51:23;;;;;;;19.23;4.87;;;;;;;;;;4945884;29;20255;-80
2022/11/22 03:53:49;;;;;;;19.20;4.87;;;;;;;;;;4975030;28;20191;-80
2022/11/22 03:56:15;;;;;;;15.97;4.07;;;;;;;;;;4971542;28;20184;-80
2022/11/22 03:58:41;;;;;;;23.50;4.77;;;;;;;;;;4948353;29;20235;-80
2022/11/22 04:01:07;;;;;;;18.87;4.60;;;;;;;;;;4943249;29;20191;-80
2022/11/22 04:03:33;;;;;;;17.77;4.53;;;;;;;;;;4952369;28;20199;-80
2022/11/22 04:05:59;;;;;;;17.47;4.83;;;;;;;;;;4946317;29;20215;-80
2022/11/22 04:08:25;;;;;;;18.80;4.13;;;;;;;;;;4945965;29;20301;-80
2022/11/22 04:10:51;;;;;;;20.30;4.63;;;;;;;;;;4941364;28;20183;-80
2022/11/22 04:13:17;;;;;;;20.57;3.93;;;;;;;;;;4949376;29;20191;-77
2022/11/22 04:15:43;;;;;;;15.97;4.30;;;;;;;;;;4939163;29;20188;-77
2022/11/22 04:18:13;;;;;;;18.30;4.10;;;;;;;;;;4939587;29;20199;-77
2022/11/22 04:23:25;;;;;;;15.97;3.73;;;;;;;;;;4946002;29;20249;-80
2022/11/22 04:25:52;;;;;;;16.80;3.80;;;;;;;;;;4940881;29;20242;-80
2022/11/22 04:28:23;;;;;;;19.13;4.50;;;;;;;;;;4956266;29;20190;-79
2022/11/22 04:33:34;;;;;;;14.20;3.60;;;;;;;;;;4961575;28;20269;-79
2022/11/22 04:36:00;;;;;;;17.50;3.80;;;;;;;;;;4988468;28;20214;-79
2022/11/22 04:38:26;;;;;;;13.37;4.20;;;;;;;;;;4972776;28;20225;-79
2022/11/22 04:40:52;;;;;;;15.47;3.60;;;;;;;;;;4967591;28;20222;-79
2022/11/22 04:46:10;;;;;;;19.33;3.90;;;;;;;;;;4963582;28;20229;-80
2022/11/22 04:48:36;;;;;;;20.50;3.73;;;;;;;;;;4985558;28;20243;-80
2022/11/22 04:53:47;;;;;;;18.93;4.10;;;;;;;;;;4984615;28;20198;-80
2022/11/22 04:56:13;;;;;;;17.97;3.60;;;;;;;;;;4958470;28;20267;-80
2022/11/22 04:58:39;;;;;;;17.33;4.10;;;;;;;;;;4984978;28;20277;-80
2022/11/22 05:01:05;;;;;;;14.00;3.50;;;;;;;;;;4963169;28;20190;-80
2022/11/22 05:03:31;;;;;;;14.63;3.23;;;;;;;;;;4987324;28;20222;-80
2022/11/22 05:06:00;;;;;;;17.03;3.87;;;;;;;;;;4971496;28;20218;-80
2022/11/22 05:08:26;;;;;;;19.57;3.77;;;;;;;;;;4972138;28;20182;-80
2022/11/22 05:11:01;;;;;;;13.83;3.73;;;;;;;;;;4965882;28;20274;-80
2022/11/22 05:13:32;;;;;;;15.53;4.07;;;;;;;;;;4967254;28;20206;-80
2022/11/22 05:15:58;;;;;;;18.13;3.77;;;;;;;;;;4964410;28;20261;-80
2022/11/22 05:18:25;;;;;;;20.10;4.00;;;;;;;;;;4971465;28;20289;-79
2022/11/22 05:20:51;;;;;;;13.37;3.40;;;;;;;;;;4971657;28;20188;-79
2022/11/22 05:26:03;;;;;;;19.77;3.60;;;;;;;;;;4970144;28;20225;-78
2022/11/22 05:28:33;;;;;;;14.87;4.30;;;;;;;;;;4963039;28;20179;-79
2022/11/22 05:30:59;;;;;;;17.50;3.73;;;;;;;;;;4967465;28;20224;-85
2022/11/22 05:33:25;;;;;;;14.97;3.50;;;;;;;;;;4952017;29;20222;-86
2022/11/22 05:35:51;;;;;;;15.63;3.63;;;;;;;;;;4954586;29;20187;-77
2022/11/22 05:38:17;;;;;;;15.53;4.17;;;;;;;;;;4938789;29;20184;-77
2022/11/22 05:40:43;;;;;;;19.73;3.63;;;;;;;;;;4951919;29;20191;-77
2022/11/22 05:43:09;;;;;;;15.33;3.80;;;;;;;;;;4968446;28;20184;-77
2022/11/22 05:45:35;;;;;;;19.07;4.03;;;;;;;;;;4951869;29;20208;-77
2022/11/22 05:48:01;;;;;;;16.27;4.10;;;;;;;;;;4964723;28;20193;-77
2022/11/22 05:50:27;;;;;;;13.50;3.83;;;;;;;;;;4932985;29;20236;-77
2022/11/22 05:52:53;;;;;;;16.37;3.53;;;;;;;;;;4933009;29;20181;-77
2022/11/22 05:55:19;;;;;;;14.97;4.00;;;;;;;;;;4948654;29;20191;-77
2022/11/22 05:57:45;;;;;;;17.27;3.70;;;;;;;;;;4942176;29;20187;-77
2022/11/22 06:00:11;;;;;;;14.23;3.63;;;;;;;;;;4937498;29;20184;-77
2022/11/22 06:02:37;;;;;;;20.10;4.13;;;;;;;;;;4953578;29;20251;-77
2022/11/22 06:05:04;;;;;;;20.63;4.67;;;;;;;;;;4946428;29;20241;-77
2022/11/22 06:07:30;;;;;;;17.07;4.27;;;;;;;;;;4951407;28;20184;-77
2022/11/22 06:09:55;;;;;;;17.33;3.70;;;;;;;;;;4951668;29;20192;-77
2022/11/22 06:12:22;;;;;;;17.67;3.97;;;;;;;;;;4948597;29;20216;-77
2022/11/22 06:14:47;;;;;;;14.63;3.70;;;;;;;;;;4950912;28;20188;-79
2022/11/22 06:17:13;;;;;;;19.60;3.97;;;;;;;;;;4967656;28;20247;-78
2022/11/22 06:19:39;;;;;;;18.70;4.20;;;;;;;;;;4951973;29;20282;-78
2022/11/22 06:22:06;;;;;;;15.83;4.00;;;;;;;;;;4968201;28;20183;-78
2022/11/22 06:24:32;;;;;;;15.90;4.13;;;;;;;;;;4942090;29;20188;-78
2022/11/22 06:26:58;;;;;;;16.73;4.13;;;;;;;;;;4951149;28;20445;-78
2022/11/22 06:29:24;;;;;;;13.80;4.13;;;;;;;;;;4967495;28;20180;-78
2022/11/22 06:31:50;;;;;;;17.13;4.23;;;;;;;;;;4957251;28;20229;-78
2022/11/22 06:34:16;;;;;;;15.07;4.20;;;;;;;;;;4973810;28;20189;-78
2022/11/22 06:36:42;;;;;;;15.67;4.20;;;;;;;;;;4975233;28;20197;-78
2022/11/22 06:39:08;;;;;;;20.43;4.80;;;;;;;;;;4957911;28;20194;-78
2022/11/22 06:41:35;;;;;;;16.33;4.67;;;;;;;;;;4970285;28;20293;-78
2022/11/22 06:44:03;;;;;;;18.27;4.90;;;;;;;;;;4970894;28;20182;-80
2022/11/22 06:46:29;;;;;;;17.10;4.73;;;;;;;;;;4980485;23;20240;-78
2022/11/22 06:48:55;;;;;;;21.40;4.90;;;;;;;;;;5025454;28;20268;-77
2022/11/22 06:51:25;;;;;;;23.52;6.00;;;;;;;;;;5021460;28;20489;-77
2022/11/22 06:53:55;;;;;;;22.87;4.43;;;;;;;;;;5023862;28;20182;-77
2022/11/22 06:56:21;;;;;;;16.33;4.13;;;;;;;;;;5021826;28;20246;-78
2022/11/22 06:58:48;;;;;;;20.90;4.07;;;;;;;;;;5023038;28;20273;-79
2022/11/22 07:01:15;;;;;;;21.80;4.53;;;;;;;;;;4987826;28;20192;-79
2022/11/22 07:03:42;;;;;;;20.33;3.97;;;;;;;;;;5011539;28;20186;-79
2022/11/22 07:06:09;;;;;;;15.50;4.10;;;;;;;;;;5024029;28;20209;-77
2022/11/22 07:08:36;;;;;;;14.47;4.10;;;;;;;;;;5024013;28;21464;-78
2022/11/22 07:11:03;;;;;;;20.63;3.90;;;;;;;;;;5024947;28;20177;-77
2022/11/22 07:13:29;;;;;;;15.57;4.43;;;;;;;;;;4979248;28;20198;-78
2022/11/22 07:15:56;;;;;;;13.80;4.00;;;;;;;;;;5009011;28;20255;-82
2022/11/22 07:18:22;;;;;;;21.13;4.80;;;;;;;;;;5030927;28;20193;-82
2022/11/22 07:20:48;;;;;;;17.33;4.50;;;;;;;;;;5007115;28;20197;-81
2022/11/22 07:23:14;;;;;;;16.77;4.70;;;;;;;;;;5016540;28;20188;-82
2022/11/22 07:25:47;;;;;;;18.43;4.37;;;;;;;;;;5018762;28;20206;-81
2022/11/22 07:28:13;;;;;;;22.47;4.80;;;;;;;;;;5012221;28;20177;-81
2022/11/22 07:30:39;;;;;;;21.73;4.40;;;;;;;;;;5017776;28;20204;-82
2022/11/22 07:33:06;;;;;;;19.60;3.97;;;;;;;;;;5009801;28;20190;-78
2022/11/22 07:35:32;;;;;;;12.77;4.23;;;;;;;;;;5027762;28;20220;-78
2022/11/22 07:37:58;;;;;;;22.93;5.07;;;;;;;;;;4977722;28;20186;-77
2022/11/22 07:40:24;;;;;;;24.73;5.23;;;;;;;;;;5026273;28;20186;-77
2022/11/22 07:42:50;;;;;;;28.30;5.30;;;;;;;;;;5027848;28;20289;-77
2022/11/22 07:45:16;;;;;;;30.70;5.43;;;;;;;;;;5027080;28;20213;-77
2022/11/22 07:47:42;;;;;;;25.70;4.93;;;;;;;;;;5024399;28;20225;-84
2022/11/22 07:50:08;;;;;;;14.50;3.93;;;;;;;;;;5015185;28;20181;-85
2022/11/22 07:52:34;;;;;;;21.13;4.60;;;;;;;;;;5029734;28;20182;-85
2022/11/22 07:55:00;;;;;;;15.93;3.90;;;;;;;;;;4996835;28;20185;-85
2022/11/22 07:57:26;;;;;;;18.73;4.20;;;;;;;;;;5013037;28;20249;-85
2022/11/22 07:59:52;;;;;;;11.97;3.50;;;;;;;;;;4998371;28;20277;-85
2022/11/22 08:02:18;;;;;;;14.77;4.37;;;;;;;;;;5030300;28;20190;-85
2022/11/22 08:04:44;;;;;;;13.83;4.20;;;;;;;;;;5029964;28;20216;-82
2022/11/22 08:07:11;;;;;;;14.57;4.07;;;;;;;;;;4986714;28;20237;-81
2022/11/22 08:09:37;;;;;;;17.77;4.90;;;;;;;;;;5008191;28;20208;-82
2022/11/22 08:12:03;;;;;;;11.83;3.50;;;;;;;;;;4992672;28;20182;-82
2022/11/22 08:14:29;;;;;;;17.50;4.13;;;;;;;;;;5027645;28;20538;-81
2022/11/22 08:16:55;;;;;;;19.57;4.23;;;;;;;;;;5027132;28;20213;-81
2022/11/22 08:19:21;;;;;;;16.57;3.83;;;;;;;;;;5027033;28;20316;-82
2022/11/22 08:21:48;;;;;;;15.60;3.63;;;;;;;;;;4997196;28;20272;-82
2022/11/22 08:24:14;;;;;;;15.20;3.60;;;;;;;;;;5022848;28;20185;-82
2022/11/22 08:26:40;;;;;;;13.43;4.20;;;;;;;;;;5022348;28;20210;-81
2022/11/22 08:29:08;;;;;;;16.93;3.70;;;;;;;;;;4995285;28;20178;-83
2022/11/22 08:31:34;;;;;;;12.63;3.47;;;;;;;;;;5028370;28;20177;-82
2022/11/22 08:34:00;;;;;;;12.20;3.50;;;;;;;;;;5031352;28;20280;-82
2022/11/22 08:36:26;;;;;;;13.67;3.77;;;;;;;;;;5021246;28;20209;-82
2022/11/22 08:38:52;;;;;;;11.00;3.93;;;;;;;;;;5011662;28;20248;-79
2022/11/22 08:41:18;;;;;;;14.03;3.50;;;;;;;;;;5017504;28;20204;-79
2022/11/22 08:43:44;;;;;;;20.10;3.60;;;;;;;;;;4988925;28;20193;-79
2022/11/22 08:46:11;;;;;;;14.17;3.63;;;;;;;;;;4982813;28;20218;-79
2022/11/22 08:48:37;;;;;;;14.83;3.47;;;;;;;;;;4997600;28;20190;-79
2022/11/22 08:51:05;;;;;;;17.47;3.70;;;;;;;;;;5023463;28;20192;-79
2022/11/22 08:53:32;;;;;;;12.40;3.97;;;;;;;;;;5023364;28;20210;-79
2022/11/22 08:56:01;;;;;;;12.07;3.63;;;;;;;;;;5004130;28;20196;-76
2022/11/22 08:58:31;;;;;;;11.97;4.07;;;;;;;;;;4993041;28;20186;-77
2022/11/22 09:00:57;;;;;;;10.67;3.80;;;;;;;;;;4994700;28;20257;-77
2022/11/22 09:03:23;;;;;;;13.90;3.97;;;;;;;;;;4998614;28;20204;-76
2022/11/22 09:05:49;;;;;;;14.10;4.00;;;;;;;;;;4978463;28;20217;-77
2022/11/22 09:08:15;;;;;;;11.73;3.60;;;;;;;;;;4994750;28;20197;-77
2022/11/22 09:10:41;;;;;;;14.47;3.73;;;;;;;;;;5026460;28;20201;-79
2022/11/22 09:13:07;;;;;;;12.83;4.00;;;;;;;;;;5012908;28;20189;-84
2022/11/22 09:15:33;;;;;;;10.97;3.63;;;;;;;;;;5001484;28;20192;-86
2022/11/22 09:18:00;;;;;;;10.97;3.63;;;;;;;;;;4998282;28;20181;-86
2022/11/22 09:20:27;;;;;;;12.87;3.07;;;;;;;;;;4994646;28;20194;-86
2022/11/22 09:22:53;;;;;;;13.63;3.50;;;;;;;;;;5010014;28;20186;-86
2022/11/22 09:25:19;;;;;;;15.87;3.87;;;;;;;;;;5024779;28;20197;-82
2022/11/22 09:27:45;;;;;;;10.53;3.40;;;;;;;;;;4986638;28;20177;-80
2022/11/22 09:30:11;;;;;;;13.67;3.47;;;;;;;;;;4988905;28;20194;-79
2022/11/22 09:32:37;;;;;;;13.57;3.30;;;;;;;;;;5019343;28;20228;-80
2022/11/22 09:35:03;;;;;;;8.67;3.20;;;;;;;;;;5010511;28;20217;-79
2022/11/22 09:37:31;;;;;;;13.30;3.27;;;;;;;;;;4994961;28;20280;-79
2022/11/22 09:39:57;;;;;;;13.30;3.40;;;;;;;;;;5024991;28;20194;-79
2022/11/22 09:42:29;;;;;;;12.10;3.30;;;;;;;;;;5012842;28;20275;-79
2022/11/22 09:45:10;;;;;;;12.87;3.73;;;;;;;;;;5026042;28;20193;-84
2022/11/22 09:47:36;;;;;;;10.43;3.50;;;;;;;;;;5024648;28;20217;-84
2022/11/22 09:50:40;;;;;;;9.87;2.90;;;;;;;;;;5026378;28;20265;-84
2022/11/22 09:53:10;;;;;;;11.40;3.07;;;;;;;;;;4961266;28;20194;-85
2022/11/22 09:55:39;;;;;;;13.70;3.50;;;;;;;;;;4965501;28;20254;-87
2022/11/22 09:58:24;;;;;;;12.43;3.10;;;;;;;;;;4989527;28;20198;-79
2022/11/22 10:00:50;;;;;;;9.83;3.47;;;;;;;;;;4991359;28;20261;-79
2022/11/22 10:03:25;;;;;;;11.33;3.10;;;;;;;;;;5018501;28;20328;-76
2022/11/22 10:05:53;;;;;;;11.43;3.13;;;;;;;;;;5010443;28;20209;-76
2022/11/22 10:08:24;;;;;;;9.53;2.80;;;;;;;;;;5026280;28;20189;-76
2022/11/22 10:10:52;;;;;;;9.43;2.70;;;;;;;;;;5026296;28;20174;-76
2022/11/22 10:13:22;;;;;;;7.90;2.90;;;;;;;;;;5021643;28;20223;-76
2022/11/22 10:15:48;;;;;;;10.23;2.90;;;;;;;;;;5027544;28;20228;-76
2022/11/22 10:18:19;;;;;;;11.33;3.03;;;;;;;;;;5025894;28;20197;-79
2022/11/22 10:20:45;;;;;;;10.23;2.90;;;;;;;;;;5025084;28;20267;-79
2022/11/22 10:23:18;;;;;;;9.67;2.70;;;;;;;;;;4994388;28;20237;-79
2022/11/22 10:25:46;;;;;;;11.87;2.87;;;;;;;;;;5010891;28;20208;-79
2022/11/22 10:28:33;;;;;;;9.33;2.80;;;;;;;;;;5005941;28;20278;-79
2022/11/22 10:31:08;;;;;;;9.60;2.70;;;;;;;;;;5011087;28;20208;-79
2022/11/22 10:34:10;;;;;;;7.63;2.33;;;;;;;;;;5024197;28;20188;-79
2022/11/22 10:36:36;;;;;;;9.50;3.33;;;;;;;;;;4916378;29;20274;-87
2022/11/22 10:39:12;;;;;;;10.30;2.70;;;;;;;;;;5007161;28;20283;-85
2022/11/22 10:41:49;;;;;;;12.33;3.20;;;;;;;;;;4994444;28;20235;-85
2022/11/22 10:44:28;;;;;;;10.37;2.97;;;;;;;;;;5026934;28;20191;-86
2022/11/22 10:47:13;;;;;;;9.70;2.63;;;;;;;;;;5027948;28;20267;-86
2022/11/22 10:49:39;;;;;;;8.13;2.63;;;;;;;;;;5014540;28;20193;-85
2022/11/22 10:52:05;;;;;;;9.40;2.73;;;;;;;;;;5033108;28;20177;-86
2022/11/22 10:54:31;;;;;;;6.83;2.40;;;;;;;;;;5011968;28;20216;-86
2022/11/22 10:57:16;;;;;;;9.60;2.50;;;;;;;;;;5029547;28;20190;-87
2022/11/22 10:59:42;;;;;;;9.47;2.70;;;;;;;;;;5028295;28;20186;-87
2022/11/22 11:02:26;;;;;;;10.20;2.50;;;;;;;;;;5028626;28;20197;-87
2022/11/22 11:04:54;;;;;;;8.20;2.63;;;;;;;;;;5021816;28;20185;-87
2022/11/22 11:07:21;;;;;;;9.87;2.57;;;;;;;;;;5019557;28;20244;-86
2022/11/22 11:09:55;;;;;;;7.67;2.27;;;;;;;;;;5027375;28;20260;-79
2022/11/22 11:12:38;;;;;;;8.13;2.30;;;;;;;;;;4998969;28;20178;-79
2022/11/22 11:15:06;;;;;;;8.33;2.47;;;;;;;;;;5020946;28;20193;-79
2022/11/22 11:17:34;;;;;;;6.13;2.20;;;;;;;;;;4996052;28;20185;-79
2022/11/22 11:20:02;;;;;;;8.00;2.70;;;;;;;;;;5001844;28;20551;-79
2022/11/22 11:22:31;;;;;;;9.00;2.33;;;;;;;;;;5028585;28;20217;-79
2022/11/22 11:25:17;;;;;;;5.93;2.53;;;;;;;;;;5000858;28;20185;-88
2022/11/22 11:27:44;;;;;;;9.47;2.60;;;;;;;;;;5026134;28;20174;-88
2022/11/22 11:30:11;;;;;;;6.13;2.20;;;;;;;;;;5022446;28;20213;-88
2022/11/22 11:32:56;;;;;;;7.83;2.37;;;;;;;;;;5007073;28;20334;-88
2022/11/22 11:35:24;;;;;;;5.40;2.30;;;;;;;;;;4999631;28;20212;-88
2022/11/22 11:37:50;;;;;;;6.23;2.30;;;;;;;;;;4998772;28;20233;-89
2022/11/22 11:40:29;;;;;;;4.47;1.93;;;;;;;;;;5031799;28;20182;-88
2022/11/22 11:43:15;;;;;;;4.90;1.90;;;;;;;;;;5020929;28;20182;-79
2022/11/22 11:45:41;;;;;;;8.57;1.97;;;;;;;;;;4996061;28;20216;-79
2022/11/22 11:48:40;;;;;;;4.57;1.97;;;;;;;;;;5029127;28;20236;-79
2022/11/22 11:51:14;;;;;;;7.00;1.93;;;;;;;;;;4964557;28;20205;-79
2022/11/22 11:53:41;;;;;;;4.00;2.00;;;;;;;;;;5027791;28;20189;-79
2022/11/22 11:56:18;;;;;;;4.90;1.70;;;;;;;;;;5012440;28;20241;-79
2022/11/22 11:58:49;;;;;;;4.80;2.20;;;;;;;;;;5017240;28;20189;-80
2022/11/22 12:01:18;;;;;;;8.10;1.93;;;;;;;;;;5024755;28;20186;-80
2022/11/22 12:03:50;;;;;;;5.47;2.00;;;;;;;;;;5029602;28;20181;-80
2022/11/22 12:06:16;;;;;;;4.60;2.07;;;;;;;;;;5013071;28;20213;-80
2022/11/22 12:08:42;;;;;;;3.80;1.70;;;;;;;;;;5023109;28;20186;-80
2022/11/22 12:11:11;;;;;;;6.07;1.83;;;;;;;;;;4998889;28;20195;-80
2022/11/22 12:13:45;;;;;;;7.40;2.00;;;;;;;;;;5023408;28;20174;-80
2022/11/22 12:16:31;;;;;;;5.28;1.90;;;;;;;;;;4996677;28;20405;-77
2022/11/22 12:19:04;;;;;;;4.35;1.90;;;;;;;;;;5009642;28;20459;-77
2022/11/22 12:21:49;;;;;;;4.93;1.70;;;;;;;;;;5027831;28;20186;-77
2022/11/22 12:24:29;;;;;;;3.87;1.70;;;;;;;;;;5011908;28;20182;-76
2022/11/22 12:26:55;;;;;;;3.40;1.60;;;;;;;;;;4997125;28;20213;-77
2022/11/22 12:29:22;;;;;;;6.37;2.07;;;;;;;;;;5018990;28;20178;-77
2022/11/22 12:31:52;;;;;;;3.43;1.70;;;;;;;;;;5028415;28;20186;-89
2022/11/22 12:34:22;;;;;;;2.50;1.33;;;;;;;;;;4981898;28;20242;-89
2022/11/22 12:36:48;;;;;;;2.80;1.63;;;;;;;;;;4992729;28;20258;-89
2022/11/22 12:39:16;;;;;;;4.40;1.57;;;;;;;;;;5001759;28;20308;-88
2022/11/22 12:41:43;;;;;;;3.30;1.50;;;;;;;;;;5029460;28;20184;-88
2022/11/22 12:44:13;;;;;;;2.30;1.40;;;;;;;;;;5027669;28;20278;-88
2022/11/22 12:46:41;;;;;;;2.83;1.30;;;;;;;;;;5027885;28;20236;-88
2022/11/22 12:49:14;;;;;;;2.23;1.40;;;;;;;;;;5028259;28;20182;-80
2022/11/22 12:51:43;;;;;;;2.90;1.40;;;;;;;;;;4997478;28;20406;-79
2022/11/22 12:54:31;;;;;;;2.60;1.20;;;;;;;;;;5011818;28;20198;-79
2022/11/22 12:57:02;;;;;;;1.97;1.40;;;;;;;;;;5010703;28;20185;-79
2022/11/22 12:59:49;;;;;;;3.17;1.30;;;;;;;;;;5009479;28;20268;-80
2022/11/22 13:02:22;;;;;;;4.07;1.37;;;;;;;;;;5019414;28;20193;-79
2022/11/22 13:04:48;;;;;;;4.83;1.30;;;;;;;;;;5025366;28;20182;-86
2022/11/22 13:07:17;;;;;;;1.93;1.17;;;;;;;;;;5014261;28;20209;-87
2022/11/22 13:09:52;;;;;;;2.03;1.20;;;;;;;;;;5002479;28;20219;-88
2022/11/22 13:12:26;;;;;;;1.70;1.10;;;;;;;;;;5012547;28;20174;-88
2022/11/22 13:14:54;;;;;;;2.20;1.43;;;;;;;;;;4995289;28;20240;-87
2022/11/22 13:17:21;;;;;;;2.23;1.13;;;;;;;;;;5009142;28;20182;-88
2022/11/22 13:19:52;;;;;;;2.53;1.20;;;;;;;;;;5010654;28;20246;-88
2022/11/22 13:22:18;;;;;;;1.10;1.00;;;;;;;;;;5027022;28;20181;-80
2022/11/22 13:24:44;;;;;;;2.10;1.07;;;;;;;;;;5025708;28;20196;-80
2022/11/22 13:27:16;;;;;;;2.80;1.27;;;;;;;;;;5027931;28;20205;-79
2022/11/22 13:29:43;;;;;;;2.27;1.00;;;;;;;;;;5027264;28;20182;-79
2022/11/22 13:32:12;;;;;;;2.00;1.00;;;;;;;;;;5003429;28;20186;-79
2022/11/22 13:34:57;;;;;;;1.93;1.30;;;;;;;;;;5011868;28;20186;-79
2022/11/22 13:37:23;;;;;;;2.10;1.20;;;;;;;;;;5026633;28;20264;-80
2022/11/22 13:39:49;;;;;;;2.03;1.00;;;;;;;;;;5009823;28;20189;-86
2022/11/22 13:42:33;;;;;;;1.37;0.93;;;;;;;;;;5005050;28;20273;-87
2022/11/22 13:44:59;;;;;;;2.47;1.00;;;;;;;;;;5003379;28;20196;-86
2022/11/22 13:47:25;;;;;;;2.90;1.30;;;;;;;;;;5010387;28;20230;-85
2022/11/22 13:49:53;;;;;;;1.93;1.00;;;;;;;;;;5010145;28;20264;-88
2022/11/22 13:52:19;;;;;;;2.37;1.20;;;;;;;;;;5010386;28;20248;-88
2022/11/22 13:54:51;;;;;;;3.70;1.10;;;;;;;;;;5010197;28;20182;-80
2022/11/22 13:57:29;;;;;;;2.10;1.30;;;;;;;;;;4994852;28;20209;-80
2022/11/22 14:00:13;;;;;;;3.07;1.00;;;;;;;;;;4994691;28;20181;-80
2022/11/22 14:02:42;;;;;;;2.37;1.10;;;;;;;;;;5027236;28;20181;-79
2022/11/22 14:05:36;;;;;;;3.13;1.00;;;;;;;;;;4995797;28;20189;-80
2022/11/22 14:08:03;;;;;;;1.27;1.00;;;;;;;;;;5026104;28;20193;-80
2022/11/22 14:10:35;;;;;;;1.57;1.10;;;;;;;;;;4994362;28;20174;-79
2022/11/22 14:13:01;;;;;;;2.23;1.20;;;;;;;;;;5027426;28;20206;-80
2022/11/22 14:15:50;;;;;;;2.47;0.90;;;;;;;;;;5010764;28;20190;-79
2022/11/22 14:18:22;;;;;;;1.87;1.03;;;;;;;;;;5024488;28;20185;-81
2022/11/22 14:20:59;;;;;;;0.97;0.80;;;;;;;;;;5025438;28;20189;-80
2022/11/22 14:23:40;;;;;;;1.50;1.10;;;;;;;;;;5001967;28;20254;-80
2022/11/22 14:26:06;;;;;;;1.30;0.90;;;;;;;;;;4993915;28;20218;-80
2022/11/22 14:28:35;;;;;;;3.73;1.10;;;;;;;;;;4994355;28;20181;-88
2022/11/22 14:31:11;;;;;;;1.33;1.00;;;;;;;;;;5027762;28;20332;-89
2022/11/22 14:33:57;;;;;;;2.10;1.10;;;;;;;;;;5026798;28;20185;-88
2022/11/22 14:36:23;;;;;;;2.57;1.10;;;;;;;;;;5025675;28;20336;-88
2022/11/22 14:38:49;;;;;;;1.47;1.00;;;;;;;;;;5018080;28;20280;-89
2022/11/22 14:41:28;;;;;;;2.17;1.17;;;;;;;;;;5000313;28;20190;-88
2022/11/22 14:43:58;;;;;;;2.10;0.97;;;;;;;;;;5010426;28;20193;-87
2022/11/22 14:46:25;;;;;;;0.80;0.80;;;;;;;;;;5015845;28;20202;-86
2022/11/22 14:49:05;;;;;;;2.10;0.90;;;;;;;;;;4996056;28;20189;-88
2022/11/22 14:51:32;;;;;;;2.13;1.00;;;;;;;;;;5022325;28;20173;-86
2022/11/22 14:54:02;;;;;;;3.37;1.00;;;;;;;;;;5010859;28;20178;-86
2022/11/22 14:56:35;;;;;;;1.00;0.90;;;;;;;;;;5009397;28;20188;-85